Time;durP1;ratioP1;P1;durP2;ratioP2;P2;SDS_P1;SDS_P2;PMS_P1;PMS_P2;Temp;Humidity;BMP_temperature;BMP_pressure;BME280_temperature;BME280_humidity;BME280_pressure;Samples;Min_cycle;Max_cycle;Signal;HPM_P1;HPM_P2
2021/07/03 00:02:05;;;;;;;7.98;7.25;;;;;;;18.63;73.15;100244.70;127494;1105;22881;-78
2021/07/03 00:04:34;;;;;;;8.85;7.95;;;;;;;18.60;72.83;100242.47;127515;1104;22451;-79
2021/07/03 00:07:04;;;;;;;8.23;7.28;;;;;;;18.58;73.31;100240.00;127474;1105;22871;-77
2021/07/03 00:09:36;;;;;;;9.68;7.88;;;;;;;18.56;72.85;100247.45;127016;1104;22918;-77
2021/07/03 00:12:08;;;;;;;10.35;6.80;;;;;;;18.53;72.87;100239.86;126988;1105;25095;-79
2021/07/03 00:14:39;;;;;;;9.40;6.63;;;;;;;18.55;72.93;100239.63;127126;1105;22869;-78
2021/07/03 00:17:08;;;;;;;9.20;6.30;;;;;;;18.55;72.50;100244.98;127511;1101;22437;-78
2021/07/03 00:19:38;;;;;;;6.65;5.68;;;;;;;18.54;72.55;100235.33;127558;1101;22417;-77
2021/07/03 00:22:08;;;;;;;6.95;5.13;;;;;;;18.53;72.61;100241.73;127951;1101;24552;-77
2021/07/03 00:24:37;;;;;;;5.10;4.60;;;;;;;18.54;72.02;100229.98;127933;1101;24570;-77
2021/07/03 00:27:07;;;;;;;5.00;4.18;;;;;;;18.54;72.07;100230.79;127567;1098;22404;-77
2021/07/03 00:29:36;;;;;;;5.33;4.18;;;;;;;18.56;71.85;100222.56;127982;1098;22397;-78
2021/07/03 00:32:07;;;;;;;4.75;4.25;;;;;;;18.54;71.83;100228.12;128061;1098;23163;-78
2021/07/03 00:34:37;;;;;;;4.70;4.08;;;;;;;18.55;71.69;100226.25;127980;1098;22370;-79
2021/07/03 00:37:06;;;;;;;6.83;4.38;;;;;;;18.55;71.37;100228.92;127942;1098;22382;-79
2021/07/03 00:39:36;;;;;;;10.08;4.20;;;;;;;18.55;71.37;100228.92;127969;1098;22386;-79
2021/07/03 00:42:06;;;;;;;7.53;4.13;;;;;;;18.56;71.40;100227.91;127954;1098;24275;-79
2021/07/03 00:44:39;;;;;;;5.80;4.03;;;;;;;18.57;71.19;100218.83;127974;1097;22427;-79
2021/07/03 00:47:10;;;;;;;5.40;3.50;;;;;;;18.58;70.99;100231.16;127991;1098;24621;-79
2021/07/03 00:49:42;;;;;;;4.33;3.10;;;;;;;18.56;71.01;100227.91;127951;1098;23154;-79
2021/07/03 00:52:12;;;;;;;6.13;3.35;;;;;;;18.55;70.76;100231.61;127994;1098;22381;-78
2021/07/03 00:54:44;;;;;;;4.95;3.28;;;;;;;18.54;70.79;100238.00;127935;1098;23453;-78
2021/07/03 00:57:15;;;;;;;4.03;3.15;;;;;;;18.56;70.92;100238.61;127964;1098;24279;-78
2021/07/03 00:59:47;;;;;;;7.13;4.63;;;;;;;18.55;70.48;100240.44;127952;1098;22513;-78
2021/07/03 01:02:23;;;;;;;4.28;3.45;;;;;;;18.56;70.71;100243.96;127988;1098;22766;-79
2021/07/03 01:04:54;;;;;;;4.57;3.53;;;;;;;18.56;70.61;100244.77;128079;1098;22385;-79
2021/07/03 01:07:31;;;;;;;5.23;3.75;;;;;;;18.57;70.69;100242.91;127933;1101;24553;-79
2021/07/03 01:10:04;;;;;;;5.38;3.38;;;;;;;18.57;70.53;100240.23;127642;1100;22647;-79
2021/07/03 01:12:34;;;;;;;3.48;3.18;;;;;;;18.56;70.29;100238.61;128012;1101;22392;-78
2021/07/03 01:15:05;;;;;;;4.80;3.40;;;;;;;18.53;69.96;100241.73;127968;1101;23386;-78
2021/07/03 01:17:37;;;;;;;4.78;3.93;;;;;;;18.50;70.39;100244.84;127917;1101;24614;-79
2021/07/03 01:20:08;;;;;;;6.00;4.00;;;;;;;18.48;70.07;100244.23;127654;1101;24225;-79
2021/07/03 01:22:40;;;;;;;;;;;;;;;18.41;70.00;100246.98;127741;1100;22401;-79
2021/07/03 01:25:12;;;;;;;5.48;4.98;;;;;;;18.35;70.39;100240.65;128043;1098;21276;-79
2021/07/03 01:28:04;;;;;;;5.45;4.10;;;;;;;18.37;70.23;100250.33;128079;1098;24236;-79
2021/07/03 01:30:38;;;;;;;5.95;4.18;;;;;;;18.33;70.55;100247.28;128036;1098;22721;-79
2021/07/03 01:33:09;;;;;;;4.53;4.10;;;;;;;18.31;70.29;100250.16;127930;1098;24200;-78
2021/07/03 01:35:41;;;;;;;4.70;4.30;;;;;;;18.30;70.36;100245.86;128031;1098;22407;-78
2021/07/03 01:38:24;;;;;;;5.43;4.65;;;;;;;18.30;70.50;100250.40;128008;1098;22422;-78
2021/07/03 01:40:57;;;;;;;5.65;4.35;;;;;;;18.26;70.32;100255.38;128040;1098;22843;-78
2021/07/03 01:43:34;;;;;;;4.90;4.23;;;;;;;18.23;70.48;100258.48;128047;1098;22409;-78
2021/07/03 01:46:05;;;;;;;;;;;;;;;18.16;70.16;100256.89;127724;1101;22381;-79
2021/07/03 01:48:36;;;;;;;7.63;6.93;;;;;;;18.08;70.34;100261.48;127993;1101;21269;-79
2021/07/03 01:51:12;;;;;;;7.33;6.70;;;;;;;18.07;70.10;100259.85;127943;1101;23165;-78
2021/07/03 01:53:43;;;;;;;7.43;6.50;;;;;;;18.09;70.36;100267.64;128033;1101;22387;-78
2021/07/03 01:56:13;;;;;;;6.48;4.80;;;;;;;18.10;70.43;100271.97;128024;1101;22385;-78
2021/07/03 01:58:43;;;;;;;8.60;7.73;;;;;;;18.08;70.19;100271.36;127640;1101;22296;-78
2021/07/03 02:01:25;;;;;;;6.80;4.88;;;;;;;18.08;70.12;100263.34;127776;1101;22404;-79
2021/07/03 02:03:55;;;;;;;7.68;6.88;;;;;;;18.07;70.19;100267.88;127700;1098;24541;-78
2021/07/03 02:06:34;;;;;;;5.80;5.28;;;;;;;18.09;70.10;100275.66;128014;1098;24380;-79
2021/07/03 02:09:06;;;;;;;6.57;4.80;;;;;;;18.08;70.16;100272.17;127677;1101;22384;-79
2021/07/03 02:11:37;;;;;;;5.33;4.83;;;;;;;18.05;70.03;100269.13;127774;1101;24224;-77
2021/07/03 02:14:14;;;;;;;5.33;4.80;;;;;;;18.02;70.17;100275.71;127646;1101;22392;-78
2021/07/03 02:16:54;;;;;;;5.53;4.57;;;;;;;18.01;70.15;100268.74;127961;1101;22404;-77
2021/07/03 02:19:25;;;;;;;;;;;;;;;17.93;69.99;100268.22;127993;1101;22416;-78
2021/07/03 02:21:56;;;;;;;5.00;4.45;;;;;;;17.87;70.69;100265.36;127971;1101;21279;-78
2021/07/03 02:24:34;;;;;;;5.55;5.05;;;;;;;17.88;70.49;100266.98;127719;1101;22404;-77
2021/07/03 02:27:04;;;;;;;6.78;5.80;;;;;;;17.88;70.74;100264.31;127687;1101;22478;-79
2021/07/03 02:29:35;;;;;;;6.05;5.45;;;;;;;17.90;71.00;100274.80;127692;1101;22411;-78
2021/07/03 02:32:05;;;;;;;5.73;4.77;;;;;;;17.90;70.71;100274.80;127940;1101;22484;-78
2021/07/03 02:34:35;;;;;;;5.80;5.20;;;;;;;17.87;70.76;100272.56;127526;1101;22387;-79
2021/07/03 02:37:05;;;;;;;5.80;5.03;;;;;;;17.85;70.96;100266.61;127560;1101;22410;-79
2021/07/03 02:39:35;;;;;;;5.45;4.80;;;;;;;17.83;71.10;100268.70;127523;1101;22387;-78
2021/07/03 02:42:06;;;;;;;5.35;4.60;;;;;;;17.82;71.16;100267.86;127495;1101;24544;-79
2021/07/03 02:44:35;;;;;;;8.38;5.58;;;;;;;17.82;71.16;100270.52;127168;1101;22408;-79
2021/07/03 02:47:06;;;;;;;7.25;5.35;;;;;;;17.80;71.44;100269.95;127949;1101;23516;-78
2021/07/03 02:49:36;;;;;;;7.10;4.83;;;;;;;17.80;71.27;100269.13;127506;1101;22414;-78
2021/07/03 02:52:05;;;;;;;6.53;4.75;;;;;;;17.80;71.62;100272.62;127115;1101;22430;-79
2021/07/03 02:54:36;;;;;;;4.97;4.50;;;;;;;17.79;71.52;100270.98;127729;1101;22410;-77
2021/07/03 02:57:06;;;;;;;9.00;5.78;;;;;;;17.79;72.31;100284.34;127668;1101;23508;-77
2021/07/03 02:59:35;;;;;;;7.05;5.40;;;;;;;17.78;71.58;100277.34;127603;1101;22394;-78
2021/07/03 03:02:06;;;;;;;5.63;5.13;;;;;;;17.79;71.69;100280.83;127611;1101;24634;-77
2021/07/03 03:04:38;;;;;;;7.03;5.93;;;;;;;17.81;71.85;100271.57;127567;1101;22561;-80
2021/07/03 03:07:07;;;;;;;8.48;7.18;;;;;;;17.84;71.93;100271.14;127949;1098;22395;-78
2021/07/03 03:09:38;;;;;;;6.30;5.70;;;;;;;17.88;71.86;100264.31;127977;1098;22519;-78
2021/07/03 03:12:08;;;;;;;8.78;5.58;;;;;;;17.92;71.70;100285.27;127983;1098;22380;-78
2021/07/03 03:14:39;;;;;;;7.90;6.10;;;;;;;17.94;71.79;100280.53;127943;1098;22378;-78
2021/07/03 03:17:09;;;;;;;9.05;5.15;;;;;;;17.98;71.58;100279.05;127989;1098;24530;-79
2021/07/03 03:19:39;;;;;;;6.03;5.50;;;;;;;18.01;71.53;100278.63;128029;1098;24642;-78
2021/07/03 03:22:09;;;;;;;5.78;5.00;;;;;;;18.03;71.54;100276.56;127989;1098;22382;-78
2021/07/03 03:24:39;;;;;;;16.95;7.08;;;;;;;18.03;71.79;100272.03;127979;1098;22461;-78
2021/07/03 03:27:09;;;;;;;10.20;5.90;;;;;;;18.07;71.31;100277.75;127978;1098;22382;-79
2021/07/03 03:29:40;;;;;;;7.08;5.83;;;;;;;18.09;71.32;100272.98;127984;1098;22397;-77
2021/07/03 03:32:09;;;;;;;6.53;5.98;;;;;;;18.12;70.77;100272.55;128012;1098;22386;-78
2021/07/03 03:34:39;;;;;;;5.60;5.08;;;;;;;18.13;71.31;100266.19;127946;1098;24275;-77
2021/07/03 03:37:09;;;;;;;8.53;5.83;;;;;;;18.15;71.36;100264.09;127982;1098;24541;-78
2021/07/03 03:39:42;;;;;;;6.90;5.60;;;;;;;18.17;71.03;100262.03;128019;1098;22398;-77
2021/07/03 03:42:12;;;;;;;6.43;5.83;;;;;;;18.19;70.68;100261.80;127988;1098;22398;-78
2021/07/03 03:44:43;;;;;;;10.68;7.48;;;;;;;18.19;71.09;100261.80;127977;1098;22379;-79
2021/07/03 03:47:13;;;;;;;6.35;5.75;;;;;;;18.17;70.80;100256.69;127977;1098;22395;-78
2021/07/03 03:49:44;;;;;;;7.93;6.03;;;;;;;18.16;70.79;100260.41;128045;1098;22379;-78
2021/07/03 03:52:19;;;;;;;7.28;6.28;;;;;;;18.15;71.07;100253.40;127969;1098;22378;-78
2021/07/03 03:54:49;;;;;;;7.43;6.73;;;;;;;18.15;70.81;100253.40;127998;1098;24520;-78
2021/07/03 03:57:21;;;;;;;9.00;7.53;;;;;;;18.13;70.94;100252.82;127944;1098;22378;-79
2021/07/03 03:59:52;;;;;;;11.55;7.03;;;;;;;18.16;71.41;100246.20;127998;1098;22382;-79
2021/07/03 04:02:23;;;;;;;9.65;7.85;;;;;;;18.21;71.12;100251.71;128046;1098;24624;-78
2021/07/03 04:04:54;;;;;;;11.33;6.98;;;;;;;18.24;71.25;100257.44;128002;1098;22841;-77
2021/07/03 04:07:24;;;;;;;12.38;7.70;;;;;;;18.27;70.97;100251.65;127988;1098;22394;-78
2021/07/03 04:09:54;;;;;;;14.25;8.95;;;;;;;18.32;71.34;100256.33;128064;1098;22501;-78
2021/07/03 04:12:25;;;;;;;14.23;8.20;;;;;;;18.35;71.44;100251.34;127989;1098;22392;-77
2021/07/03 04:14:54;;;;;;;14.13;8.85;;;;;;;18.41;71.37;100252.33;128019;1098;22397;-78
2021/07/03 04:17:24;;;;;;;14.75;8.55;;;;;;;18.43;71.01;100249.45;127980;1098;23161;-78
2021/07/03 04:19:53;;;;;;;12.63;8.88;;;;;;;18.47;71.27;100243.42;127962;1098;24618;-78
2021/07/03 04:22:23;;;;;;;12.53;8.38;;;;;;;18.55;70.79;100239.63;127995;1098;22381;-77
2021/07/03 04:24:53;;;;;;;12.88;9.28;;;;;;;18.61;71.14;100244.09;128005;1098;22385;-78
2021/07/03 04:27:22;;;;;;;11.05;9.05;;;;;;;18.69;71.12;100249.13;128039;1098;24643;-77
2021/07/03 04:29:52;;;;;;;11.25;9.08;;;;;;;18.78;70.71;100245.15;128017;1098;22378;-78
2021/07/03 04:32:22;;;;;;;12.78;8.83;;;;;;;18.91;70.63;100251.39;127997;1098;22408;-78
2021/07/03 04:34:51;;;;;;;12.38;8.48;;;;;;;19.02;70.49;100248.76;127969;1098;22380;-78
2021/07/03 04:37:21;;;;;;;10.23;8.38;;;;;;;19.18;70.62;100246.52;127985;1098;22382;-78
2021/07/03 04:39:50;;;;;;;11.63;9.33;;;;;;;19.33;69.92;100248.80;127994;1098;22381;-78
2021/07/03 04:42:20;;;;;;;16.65;9.15;;;;;;;19.48;69.19;100241.95;127991;1098;22397;-78
2021/07/03 04:44:49;;;;;;;11.03;8.85;;;;;;;19.65;69.10;100241.33;128012;1098;22404;-78
2021/07/03 04:47:20;;;;;;;15.35;9.00;;;;;;;19.81;68.58;100245.20;128004;1098;22389;-78
2021/07/03 04:49:50;;;;;;;12.50;8.78;;;;;;;19.98;68.50;100238.92;127980;1098;23468;-79
2021/07/03 04:52:20;;;;;;;16.75;7.88;;;;;;;20.16;68.18;100245.24;127964;1098;22388;-79
2021/07/03 04:54:49;;;;;;;14.08;8.35;;;;;;;20.35;67.26;100246.72;128013;1098;22398;-78
2021/07/03 04:57:19;;;;;;;8.65;7.70;;;;;;;20.52;66.53;100252.22;127990;1098;25271;-78
2021/07/03 04:59:48;;;;;;;10.85;7.83;;;;;;;20.63;66.01;100245.22;128052;1098;22681;-78
2021/07/03 05:02:18;;;;;;;12.98;7.00;;;;;;;20.73;65.37;100248.12;127962;1101;22401;-77
2021/07/03 05:04:47;;;;;;;11.13;8.80;;;;;;;20.85;65.14;100248.07;127966;1101;22404;-77
2021/07/03 05:07:19;;;;;;;12.63;9.68;;;;;;;21.00;64.63;100247.58;127919;1101;22891;-77
2021/07/03 05:09:59;;;;;;;8.43;7.25;;;;;;;21.14;63.61;100255.09;127967;1101;22695;-78
2021/07/03 05:12:29;;;;;;;14.28;8.68;;;;;;;21.26;63.62;100249.69;127977;1101;22506;-79
2021/07/03 05:14:59;;;;;;;10.53;8.00;;;;;;;21.45;63.91;100250.30;127977;1101;23848;-78
2021/07/03 05:17:28;;;;;;;11.08;6.98;;;;;;;21.59;62.29;100251.65;127634;1101;22398;-79
2021/07/03 05:19:58;;;;;;;9.33;6.90;;;;;;;21.65;61.34;100249.03;127980;1098;22397;-78
2021/07/03 05:22:28;;;;;;;14.53;13.08;;;;;;;21.71;61.59;100248.06;127967;1101;22387;-77
2021/07/03 05:24:57;;;;;;;9.45;8.15;;;;;;;21.84;61.63;100253.93;128008;1100;22391;-78
2021/07/03 05:27:27;;;;;;;9.05;6.75;;;;;;;22.01;61.05;100255.80;127632;1101;24524;-77
2021/07/03 05:29:57;;;;;;;9.93;6.67;;;;;;;22.17;60.30;100251.51;127686;1100;22388;-76
2021/07/03 05:32:26;;;;;;;12.38;8.35;;;;;;;22.30;60.33;100254.66;127946;1101;22844;-79
2021/07/03 05:34:56;;;;;;;7.68;6.90;;;;;;;22.48;59.61;100248.17;127691;1101;22401;-77
2021/07/03 05:37:25;;;;;;;8.73;6.18;;;;;;;22.64;59.07;100257.27;127933;1101;22414;-78
2021/07/03 05:39:55;;;;;;;12.98;7.00;;;;;;;22.89;58.87;100250.55;127580;1101;22409;-78
2021/07/03 05:42:24;;;;;;;10.63;8.53;;;;;;;23.13;58.16;100260.05;127652;1101;22379;-77
2021/07/03 05:44:54;;;;;;;15.38;11.90;;;;;;;23.37;57.50;100265.95;127993;1101;22409;-78
2021/07/03 05:47:24;;;;;;;13.70;7.90;;;;;;;23.65;56.65;100261.34;127912;1100;23413;-79
2021/07/03 05:49:53;;;;;;;9.90;7.00;;;;;;;23.86;55.90;100259.67;127734;1101;22407;-79
2021/07/03 05:52:23;;;;;;;11.25;6.60;;;;;;;24.10;55.32;100260.92;127944;1100;22395;-78
2021/07/03 05:54:52;;;;;;;7.60;6.38;;;;;;;24.26;54.19;100258.31;127930;1101;23139;-78
2021/07/03 05:57:25;;;;;;;9.55;7.43;;;;;;;24.39;54.06;100255.15;127974;1098;23148;-79
2021/07/03 05:59:54;;;;;;;9.53;6.60;;;;;;;24.56;53.51;100258.53;128047;1098;22714;-78
2021/07/03 06:02:24;;;;;;;13.00;6.93;;;;;;;24.84;53.20;100251.08;128008;1098;22412;-77
2021/07/03 06:04:54;;;;;;;11.78;6.08;;;;;;;25.23;52.37;100265.02;128021;1098;22410;-78
2021/07/03 06:07:25;;;;;;;10.07;6.70;;;;;;;25.55;51.30;100256.66;127956;1098;22419;-77
2021/07/03 06:09:55;;;;;;;9.28;5.98;;;;;;;25.76;50.24;100254.80;127583;1101;22389;-77
2021/07/03 06:12:25;;;;;;;9.70;7.38;;;;;;;26.01;49.99;100253.98;127492;1101;22422;-77
2021/07/03 06:14:55;;;;;;;10.60;6.50;;;;;;;26.19;49.11;100249.91;127568;1101;22452;-77
2021/07/03 06:17:25;;;;;;;9.58;6.93;;;;;;;26.26;48.64;100250.44;127529;1101;25109;-77
2021/07/03 06:19:54;;;;;;;8.45;6.93;;;;;;;26.33;48.31;100252.86;127525;1101;22414;-77
2021/07/03 06:22:24;;;;;;;7.48;6.20;;;;;;;26.43;48.10;100257.44;127612;1101;22440;-75
2021/07/03 06:24:54;;;;;;;8.28;5.93;;;;;;;26.62;47.74;100263.08;127555;1101;22426;-77
2021/07/03 06:27:24;;;;;;;10.70;5.83;;;;;;;26.91;47.46;100260.52;127556;1101;22420;-78
2021/07/03 06:29:54;;;;;;;10.68;6.03;;;;;;;27.14;47.04;100265.31;127924;1098;22897;-77
2021/07/03 06:32:28;;;;;;;9.43;6.00;;;;;;;27.37;46.34;100268.43;127975;1098;22399;-76
2021/07/03 06:34:58;;;;;;;7.28;5.50;;;;;;;27.59;45.42;100265.27;127937;1098;25349;-76
2021/07/03 06:37:27;;;;;;;12.30;6.00;;;;;;;27.81;45.26;100276.53;127928;1098;22436;-77
2021/07/03 06:39:57;;;;;;;8.08;5.23;;;;;;;28.06;44.35;100271.98;127908;1101;22551;-77
2021/07/03 06:42:27;;;;;;;12.10;5.65;;;;;;;28.04;43.74;100277.69;127913;1101;22376;-78
2021/07/03 06:44:57;;;;;;;9.10;5.38;;;;;;;27.83;43.81;100276.27;127969;1101;23215;-78
2021/07/03 06:47:27;;;;;;;9.08;5.45;;;;;;;27.82;43.75;100282.77;127584;1101;24989;-78
2021/07/03 06:49:57;;;;;;;7.90;5.00;;;;;;;27.85;43.55;100279.48;127917;1101;22404;-79
2021/07/03 06:52:26;;;;;;;9.28;5.05;;;;;;;27.90;43.10;100271.31;127622;1101;24521;-82
2021/07/03 06:55:00;;;;;;;10.45;5.13;;;;;;;27.62;43.30;100272.84;128118;1101;22385;-81
2021/07/03 06:57:33;;;;;;;12.48;5.23;;;;;;;27.49;43.48;100276.20;127646;1098;24231;-84
2021/07/03 07:00:06;;;;;;;12.13;4.87;;;;;;;27.59;43.95;100273.41;127977;1098;22412;-84
2021/07/03 07:02:36;;;;;;;6.75;5.43;;;;;;;27.67;43.69;100284.48;128022;1098;22494;-82
2021/07/03 07:05:08;;;;;;;9.53;6.43;;;;;;;27.75;43.88;100284.97;127971;1098;22395;-81
2021/07/03 07:07:40;;;;;;;10.30;5.53;;;;;;;27.93;43.88;100273.45;128026;1098;22415;-82
2021/07/03 07:10:11;;;;;;;9.15;5.20;;;;;;;28.08;42.87;100276.02;128256;1098;22461;-81
2021/07/03 07:12:41;;;;;;;7.50;4.90;;;;;;;27.97;42.95;100277.21;127981;1098;22414;-83
2021/07/03 07:15:12;;;;;;;8.35;6.50;;;;;;;27.86;43.21;100278.41;128019;1098;23353;-83
2021/07/03 07:17:42;;;;;;;8.88;5.50;;;;;;;27.71;42.67;100283.92;127973;1098;22503;-80
2021/07/03 07:20:13;;;;;;;7.30;5.50;;;;;;;27.21;42.67;100283.98;127973;1098;22415;-81
2021/07/03 07:22:43;;;;;;;8.03;4.85;;;;;;;26.78;43.77;100282.80;127974;1098;23417;-82
2021/07/03 07:25:13;;;;;;;7.05;4.75;;;;;;;26.56;43.90;100278.55;128010;1098;22395;-83
2021/07/03 07:27:43;;;;;;;7.40;5.47;;;;;;;26.49;44.42;100269.88;127958;1098;22513;-83
2021/07/03 07:30:15;;;;;;;8.15;4.88;;;;;;;26.70;44.66;100273.36;127998;1098;22704;-81
2021/07/03 07:32:47;;;;;;;7.38;5.00;;;;;;;26.74;43.40;100271.70;128027;1098;24355;-79
2021/07/03 07:35:17;;;;;;;;;;;;;;;26.54;43.05;100267.17;127960;1098;22389;-79
2021/07/03 07:37:48;;;;;;;7.50;4.55;;;;;;;26.55;44.67;100278.81;127896;1098;23914;-81
2021/07/03 07:40:20;;;;;;;10.15;4.55;;;;;;;26.85;44.34;100272.47;127928;1098;22437;-82
2021/07/03 07:42:49;;;;;;;14.25;5.13;;;;;;;27.36;43.42;100269.53;127980;1098;22395;-82
2021/07/03 07:45:19;;;;;;;6.33;4.28;;;;;;;27.55;41.99;100275.88;127994;1098;22686;-82
2021/07/03 07:47:52;;;;;;;6.93;4.03;;;;;;;27.66;41.19;100265.78;127946;1098;24531;-80
2021/07/03 07:50:22;;;;;;;5.05;3.33;;;;;;;27.89;40.14;100264.23;128021;1098;23240;-80
2021/07/03 07:52:51;;;;;;;8.88;3.63;;;;;;;28.17;39.50;100276.21;127940;1098;22465;-81
2021/07/03 07:55:21;;;;;;;7.95;3.63;;;;;;;28.35;37.96;100267.31;127917;1101;22394;-81
2021/07/03 07:57:51;;;;;;;11.33;3.78;;;;;;;28.37;37.81;100275.19;127613;1101;22466;-82
2021/07/03 08:00:22;;;;;;;7.48;3.75;;;;;;;28.50;37.62;100260.14;127945;1101;22381;-83
2021/07/03 08:02:55;;;;;;;9.30;3.73;;;;;;;28.73;37.22;100272.91;127178;1102;22436;-77
2021/07/03 08:05:25;;;;;;;16.63;5.58;;;;;;;28.54;37.23;100266.61;127675;1104;22404;-78
2021/07/03 08:07:55;;;;;;;6.40;4.18;;;;;;;28.30;37.78;100263.86;127484;1104;22429;-76
2021/07/03 08:10:27;;;;;;;6.73;3.53;;;;;;;28.17;38.28;100264.55;127450;1104;22419;-78
2021/07/03 08:13:00;;;;;;;5.30;3.40;;;;;;;28.06;38.87;100261.93;127592;1102;22402;-75
2021/07/03 08:15:31;;;;;;;4.50;2.93;;;;;;;28.04;38.85;100253.25;127566;1101;22407;-76
2021/07/03 08:18:03;;;;;;;6.35;3.53;;;;;;;27.99;38.68;100256.03;127668;1101;25060;-77
2021/07/03 08:20:35;;;;;;;6.93;3.68;;;;;;;27.91;38.87;100260.16;127612;1098;24285;-76
2021/07/03 08:23:05;;;;;;;6.63;3.50;;;;;;;27.80;38.55;100252.40;127955;1098;22391;-76
2021/07/03 08:25:35;;;;;;;7.10;3.88;;;;;;;27.49;38.50;100249.91;127987;1097;22410;-77
2021/07/03 08:28:04;;;;;;;5.65;3.38;;;;;;;27.26;38.73;100256.01;128025;1098;22411;-79
2021/07/03 08:30:34;;;;;;;8.68;3.90;;;;;;;27.23;39.03;100251.17;128019;1098;22388;-75
2021/07/03 08:33:08;;;;;;;7.18;3.98;;;;;;;27.26;38.34;100253.30;128031;1098;22427;-77
2021/07/03 08:35:41;;;;;;;5.35;3.75;;;;;;;27.36;38.50;100253.26;128063;1098;22382;-76
2021/07/03 08:38:10;;;;;;;10.47;4.40;;;;;;;27.53;38.28;100250.15;128189;1098;22388;-75
2021/07/03 08:40:40;;;;;;;5.65;3.35;;;;;;;27.64;38.21;100244.34;128057;1097;22494;-76
2021/07/03 08:43:10;;;;;;;4.93;3.85;;;;;;;27.66;37.94;100246.79;127996;1098;22394;-76
2021/07/03 08:45:39;;;;;;;6.38;3.70;;;;;;;27.80;38.04;100252.40;128000;1098;24218;-77
2021/07/03 08:48:09;;;;;;;9.75;3.33;;;;;;;27.73;37.41;100255.41;127995;1098;24540;-76
2021/07/03 08:50:38;;;;;;;6.63;3.65;;;;;;;27.64;36.99;100255.20;128007;1098;23137;-76
2021/07/03 08:53:08;;;;;;;5.50;3.70;;;;;;;27.76;36.97;100237.72;128009;1098;22408;-76
2021/07/03 08:55:38;;;;;;;6.50;3.58;;;;;;;27.87;36.38;100240.11;127992;1098;22410;-77
2021/07/03 08:58:09;;;;;;;6.40;2.87;;;;;;;27.97;35.87;100247.34;127947;1101;22412;-76
2021/07/03 09:00:43;;;;;;;7.85;3.05;;;;;;;28.19;35.29;100251.47;127665;1101;22398;-76
2021/07/03 09:03:23;;;;;;;4.28;2.73;;;;;;;28.26;34.64;100236.47;127963;1100;22683;-77
2021/07/03 09:05:59;;;;;;;4.18;3.13;;;;;;;28.20;34.57;100244.96;128019;1101;22504;-76
2021/07/03 09:08:32;;;;;;;9.88;3.25;;;;;;;28.32;34.32;100251.63;127777;1101;22406;-76
2021/07/03 09:11:09;;;;;;;4.65;2.85;;;;;;;28.44;33.90;100248.52;127969;1101;22376;-76
2021/07/03 09:13:40;;;;;;;19.25;3.90;;;;;;;28.45;33.79;100250.13;128026;1101;22480;-76
2021/07/03 09:16:10;;;;;;;5.85;3.00;;;;;;;28.33;34.18;100244.27;128016;1098;22398;-75
2021/07/03 09:18:41;;;;;;;8.15;2.75;;;;;;;28.34;33.84;100232.30;127995;1098;22380;-76
2021/07/03 09:21:10;;;;;;;10.35;3.35;;;;;;;28.27;33.76;100237.28;128043;1096;22379;-76
2021/07/03 09:23:40;;;;;;;4.65;2.83;;;;;;;28.23;34.00;100238.95;127987;1098;22399;-75
2021/07/03 09:26:12;;;;;;;6.65;3.08;;;;;;;28.35;33.98;100247.49;127969;1097;22562;-75
2021/07/03 09:28:45;;;;;;;6.53;4.23;;;;;;;28.36;34.01;100235.55;127983;1098;22385;-77
2021/07/03 09:31:18;;;;;;;7.63;5.65;;;;;;;28.29;34.25;100240.49;128018;1098;24248;-76
2021/07/03 09:33:54;;;;;;;8.05;3.60;;;;;;;28.44;34.16;100237.65;128050;1098;22410;-77
2021/07/03 09:36:30;;;;;;;3.30;2.88;;;;;;;28.62;33.95;100230.63;128007;1098;22381;-76
2021/07/03 09:39:00;;;;;;;8.30;3.33;;;;;;;28.72;34.06;100229.69;128053;1098;22384;-76
2021/07/03 09:41:30;;;;;;;10.00;4.45;;;;;;;28.62;33.95;100233.34;128006;1098;22821;-76
2021/07/03 09:44:12;;;;;;;7.43;3.60;;;;;;;28.63;34.14;100239.62;128011;1098;22500;-76
2021/07/03 09:46:51;;;;;;;6.15;3.70;;;;;;;28.72;34.62;100226.98;127984;1098;22404;-76
2021/07/03 09:49:25;;;;;;;6.45;3.35;;;;;;;28.78;34.59;100242.93;128060;1098;22376;-77
2021/07/03 09:51:59;;;;;;;5.65;3.88;;;;;;;28.83;34.75;100225.76;128003;1098;22412;-77
2021/07/03 09:54:31;;;;;;;12.13;4.23;;;;;;;28.79;33.58;100230.98;128051;1098;24183;-76
2021/07/03 09:57:02;;;;;;;7.23;3.85;;;;;;;28.49;33.49;100229.45;128011;1098;23338;-77
2021/07/03 09:59:37;;;;;;;7.43;3.35;;;;;;;28.65;33.52;100215.66;128013;1098;22395;-77
2021/07/03 10:02:06;;;;;;;5.60;3.05;;;;;;;28.90;33.02;100234.36;128042;1098;22474;-76
2021/07/03 10:04:36;;;;;;;5.53;3.03;;;;;;;29.07;32.50;100221.09;127999;1098;22394;-76
2021/07/03 10:07:23;;;;;;;4.05;3.28;;;;;;;28.99;32.69;100221.73;127991;1098;22375;-77
2021/07/03 10:10:03;;;;;;;18.48;4.68;;;;;;;28.86;32.80;100227.89;128023;1098;22375;-77
2021/07/03 10:12:40;;;;;;;6.13;3.48;;;;;;;28.94;32.47;100219.07;128019;1097;22373;-77
2021/07/03 10:15:10;;;;;;;9.13;3.23;;;;;;;29.15;32.25;100222.33;127997;1098;24975;-77
2021/07/03 10:17:40;;;;;;;6.23;3.30;;;;;;;29.30;31.83;100226.74;127997;1098;22376;-77
2021/07/03 10:20:15;;;;;;;;;;;;;;;29.22;31.00;100216.52;128083;1098;22375;-77
2021/07/03 10:22:54;;;;;;;11.05;3.00;;;;;;;28.70;32.26;100224.56;128042;1098;21292;-76
2021/07/03 10:25:40;;;;;;;5.93;3.10;;;;;;;28.54;32.88;100214.98;128013;1098;22705;-76
2021/07/03 10:28:16;;;;;;;5.20;3.40;;;;;;;28.56;32.34;100221.75;128110;1098;24548;-76
2021/07/03 10:30:50;;;;;;;7.58;3.78;;;;;;;28.73;32.06;100223.98;128068;1098;22371;-77
2021/07/03 10:33:41;;;;;;;6.03;3.53;;;;;;;28.70;31.44;100221.04;128057;1101;24524;-76
2021/07/03 10:36:29;;;;;;;;;;;;;;;28.65;31.64;100212.94;128073;1101;22497;-76
2021/07/03 10:39:01;;;;;;;5.65;4.10;;;;;;;28.60;31.85;100220.06;128065;1101;21273;-76
2021/07/03 10:41:34;;;;;;;9.13;3.65;;;;;;;28.59;31.68;100210.30;128025;1101;22386;-77
2021/07/03 10:44:12;;;;;;;5.53;3.13;;;;;;;28.45;31.63;100208.56;127970;1101;22380;-76
2021/07/03 10:46:44;;;;;;;6.00;2.58;;;;;;;28.15;31.81;100211.30;128022;1100;24308;-77
2021/07/03 10:49:30;;;;;;;5.45;3.40;;;;;;;27.82;31.76;100209.47;127675;1101;22400;-77
2021/07/03 10:52:15;;;;;;;9.03;3.60;;;;;;;27.49;32.28;100221.94;128010;1098;24253;-76
2021/07/03 10:54:48;;;;;;;7.35;3.45;;;;;;;27.29;32.26;100217.48;127996;1098;24554;-76
2021/07/03 10:57:26;;;;;;;7.98;3.30;;;;;;;27.27;32.41;100203.41;128024;1098;22478;-77
2021/07/03 11:00:04;;;;;;;4.95;3.33;;;;;;;27.33;31.93;100205.00;128051;1098;22383;-77
2021/07/03 11:02:34;;;;;;;5.73;3.25;;;;;;;27.26;32.14;100202.61;128037;1098;22394;-77
2021/07/03 11:05:14;;;;;;;8.27;4.07;;;;;;;27.14;32.22;100197.52;128087;1098;22488;-79
2021/07/03 11:07:47;;;;;;;8.23;3.40;;;;;;;27.13;32.29;100203.23;128077;1098;22382;-77
2021/07/03 11:10:27;;;;;;;6.15;2.58;;;;;;;27.08;32.12;100195.09;128017;1098;22407;-77
2021/07/03 11:12:59;;;;;;;5.53;3.10;;;;;;;27.08;31.67;100193.19;128103;1098;22375;-77
2021/07/03 11:15:29;;;;;;;7.18;3.15;;;;;;;27.06;31.80;100197.27;128037;1098;23534;-77
2021/07/03 11:18:00;;;;;;;7.33;3.07;;;;;;;27.08;31.85;100184.25;127995;1098;22390;-76
2021/07/03 11:20:36;;;;;;;4.17;2.33;;;;;;;27.02;31.44;100188.08;128020;1098;24518;-77
2021/07/03 11:23:08;;;;;;;6.80;2.60;;;;;;;26.93;31.77;100185.97;128044;1098;22385;-77
2021/07/03 11:25:47;;;;;;;8.63;2.58;;;;;;;26.92;31.84;100192.47;128071;1096;22401;-77
2021/07/03 11:28:24;;;;;;;7.63;3.05;;;;;;;26.85;32.06;100191.16;128098;1098;24541;-77
2021/07/03 11:31:01;;;;;;;2.90;2.43;;;;;;;26.88;32.25;100188.70;128070;1098;22372;-76
2021/07/03 11:33:34;;;;;;;4.40;2.68;;;;;;;26.97;32.18;100180.80;128082;1098;22378;-76
2021/07/03 11:36:15;;;;;;;4.23;2.80;;;;;;;27.05;31.99;100201.88;128068;1098;23231;-76
2021/07/03 11:38:44;;;;;;;5.53;2.85;;;;;;;26.97;31.99;100178.89;128084;1098;22369;-77